Puerto De La Cruz, Spain
Current Conditions -  °F | °C
As of 11:00 PM on Wednesday 26 Nov 2014 (Local Time) from GCXO Reporting Station
Broken Clouds Broken Clouds  
Wind Chill: 55°   Ceiling: 2200
Heat Index: 55°   Visibility: 6mi
Dew Point: 52°   Wind: 22mph
Humidity: 88%   Direction: 290°WNW
Pressure: 30.09"   Gusts: NA
Location:  28.41°N, 16.55°W
Report Text: GCXO 262300Z 29019KT 9999 BKN022 13/11 Q1019 NOSIG
Loading
Personal Weather Stations






























Interactive Weather Map New forecast layout! Learn more

10-Day Weather Forecast

Advertisements
Track Severe Weather on mobile